createdAt,value
2018-09-24T00:02:03.470Z,15.70
2018-09-24T00:04:32.023Z,15.60
2018-09-24T00:07:00.509Z,15.50
2018-09-24T00:09:28.986Z,15.40
2018-09-24T00:11:57.454Z,15.30
2018-09-24T00:14:25.921Z,15.20
2018-09-24T00:16:54.386Z,15.10
2018-09-24T00:19:22.871Z,15.10
2018-09-24T00:21:51.331Z,14.90
2018-09-24T00:24:19.791Z,14.90
2018-09-24T00:26:48.258Z,14.80
2018-09-24T00:29:16.740Z,14.80
2018-09-24T00:31:45.215Z,14.70
2018-09-24T00:34:13.674Z,14.70
2018-09-24T00:36:42.141Z,14.60
2018-09-24T00:39:11.498Z,14.60
2018-09-24T00:41:40.312Z,14.50
2018-09-24T00:44:08.795Z,14.50
2018-09-24T00:46:37.274Z,14.60
2018-09-24T00:49:05.771Z,14.90
2018-09-24T00:51:34.234Z,14.90
2018-09-24T00:54:02.732Z,14.80
2018-09-24T00:56:31.223Z,14.80
2018-09-24T00:58:59.690Z,14.70
2018-09-24T01:01:28.217Z,14.80
2018-09-24T01:03:56.675Z,14.70
2018-09-24T01:06:25.138Z,14.70
2018-09-24T01:08:53.598Z,14.50
2018-09-24T01:11:22.049Z,14.40
2018-09-24T01:13:50.502Z,14.30
2018-09-24T01:16:18.964Z,14.30
2018-09-24T01:18:47.455Z,14.30
2018-09-24T01:21:15.927Z,14.40
2018-09-24T01:23:44.391Z,14.60
2018-09-24T01:26:12.847Z,14.50
2018-09-24T01:28:41.344Z,14.40
2018-09-24T01:31:09.814Z,14.40
2018-09-24T01:33:38.292Z,14.30
2018-09-24T01:36:06.793Z,14.20
2018-09-24T01:38:35.270Z,14.00
2018-09-24T01:41:13.595Z,14.00
2018-09-24T01:43:42.071Z,13.80
2018-09-24T01:46:10.542Z,13.70
2018-09-24T01:48:39.026Z,13.60
2018-09-24T01:51:07.486Z,13.70
2018-09-24T01:53:35.951Z,13.60
2018-09-24T01:56:04.422Z,13.60
2018-09-24T01:58:37.350Z,13.60
2018-09-24T02:01:06.047Z,13.60
2018-09-24T02:03:35.390Z,13.50
2018-09-24T02:06:04.747Z,13.40
2018-09-24T02:08:38.132Z,13.30
2018-09-24T02:11:06.691Z,13.30
2018-09-24T02:13:35.142Z,13.20
2018-09-24T02:16:03.622Z,13.20
2018-09-24T02:18:32.154Z,13.10
2018-09-24T02:21:00.618Z,13.10
2018-09-24T02:23:29.110Z,13.10
2018-09-24T02:25:57.574Z,13.00
2018-09-24T02:28:29.195Z,12.90
2018-09-24T02:30:57.667Z,12.80
2018-09-24T02:33:26.143Z,12.70
2018-09-24T02:35:54.611Z,12.70
2018-09-24T02:38:23.066Z,12.60
2018-09-24T02:40:51.526Z,12.60
2018-09-24T02:43:25.346Z,12.50
2018-09-24T02:45:55.183Z,12.40
2018-09-24T02:48:23.719Z,12.40
2018-09-24T02:50:52.190Z,12.40
2018-09-24T02:53:20.655Z,12.40
2018-09-24T02:55:49.130Z,12.40
2018-09-24T02:58:21.174Z,12.40
2018-09-24T03:00:50.379Z,12.40
2018-09-24T03:03:18.826Z,12.30
2018-09-24T03:05:47.294Z,12.30
2018-09-24T03:08:15.795Z,12.30
2018-09-24T03:10:44.274Z,12.20
2018-09-24T03:13:12.759Z,12.20
2018-09-24T03:15:41.887Z,12.10
2018-09-24T03:18:10.774Z,12.10
2018-09-24T03:20:41.691Z,12.10
2018-09-24T03:23:10.374Z,12.10
2018-09-24T03:25:39.371Z,12.10
2018-09-24T03:28:07.921Z,12.00
2018-09-24T03:30:38.707Z,12.00
2018-09-24T03:33:07.211Z,12.00
2018-09-24T03:35:35.791Z,11.90
2018-09-24T03:38:04.274Z,11.90
2018-09-24T03:40:32.963Z,11.90
2018-09-24T03:43:01.437Z,11.90
2018-09-24T03:45:30.533Z,11.90
2018-09-24T03:47:59.287Z,11.90
2018-09-24T03:50:27.750Z,11.80
2018-09-24T03:52:56.214Z,11.90
2018-09-24T03:55:24.675Z,11.90
2018-09-24T03:57:53.132Z,11.80
2018-09-24T04:00:21.590Z,11.80
2018-09-24T04:02:50.047Z,11.80
2018-09-24T04:05:23.874Z,11.80
2018-09-24T04:07:57.708Z,11.80
2018-09-24T04:10:31.670Z,11.80
2018-09-24T04:13:05.628Z,11.70
2018-09-24T04:15:39.432Z,11.70
2018-09-24T04:18:13.294Z,11.70
2018-09-24T04:20:47.223Z,11.70
2018-09-24T04:23:21.074Z,11.70
2018-09-24T04:25:54.798Z,11.70
2018-09-24T04:28:28.575Z,11.70
2018-09-24T04:31:02.350Z,11.70
2018-09-24T04:33:36.116Z,11.60
2018-09-24T04:36:09.890Z,11.60
2018-09-24T04:38:43.831Z,11.60
2018-09-24T04:41:17.721Z,11.50
2018-09-24T04:43:51.601Z,11.50
2018-09-24T04:46:25.508Z,11.50
2018-09-24T04:48:59.344Z,11.40
2018-09-24T04:51:33.207Z,11.40
2018-09-24T04:54:06.975Z,11.40
2018-09-24T04:56:40.815Z,11.40
2018-09-24T04:59:14.635Z,11.40
2018-09-24T05:01:48.398Z,11.40
2018-09-24T05:04:22.261Z,11.70
2018-09-24T05:06:55.932Z,11.70
2018-09-24T05:09:29.675Z,11.70
2018-09-24T05:12:03.443Z,11.70
2018-09-24T05:14:37.306Z,11.70
2018-09-24T05:17:11.174Z,11.80
2018-09-24T05:19:44.894Z,11.70
2018-09-24T05:22:18.607Z,11.70
2018-09-24T05:24:52.419Z,11.80
2018-09-24T05:27:26.208Z,11.70
2018-09-24T05:29:59.880Z,11.70
2018-09-24T05:32:33.643Z,11.60
2018-09-24T05:35:07.434Z,11.60
2018-09-24T05:37:41.111Z,11.50
2018-09-24T05:40:14.839Z,11.60
2018-09-24T05:42:48.507Z,11.60
2018-09-24T05:45:22.270Z,11.60
2018-09-24T05:47:56.084Z,11.90
2018-09-24T05:50:29.803Z,12.00
2018-09-24T05:53:03.726Z,12.20
2018-09-24T05:55:37.514Z,12.20
2018-09-24T05:58:11.626Z,12.10
2018-09-24T06:00:45.348Z,11.90
2018-09-24T06:03:19.087Z,11.70
2018-09-24T06:05:53.004Z,11.70
2018-09-24T06:08:26.871Z,11.80
2018-09-24T06:11:00.792Z,12.00
2018-09-24T06:13:34.480Z,12.00
2018-09-24T06:16:08.147Z,12.00
2018-09-24T06:18:41.767Z,12.00
2018-09-24T06:21:15.674Z,12.20
2018-09-24T06:23:49.566Z,12.30
2018-09-24T06:26:23.335Z,12.50
2018-09-24T06:28:57.028Z,12.70
2018-09-24T06:31:30.742Z,12.80
2018-09-24T06:34:04.583Z,12.90
2018-09-24T06:36:38.307Z,13.00
2018-09-24T06:39:13.662Z,13.00
2018-09-24T06:41:47.330Z,13.00
2018-09-24T06:44:21.182Z,13.10
2018-09-24T06:46:54.942Z,13.30
2018-09-24T06:49:28.738Z,13.20
2018-09-24T06:52:02.473Z,13.20
2018-09-24T06:54:36.258Z,13.20
2018-09-24T06:57:10.179Z,13.30
2018-09-24T06:59:44.071Z,13.40
2018-09-24T07:02:17.811Z,13.50
2018-09-24T07:04:51.614Z,13.60
2018-09-24T07:07:25.523Z,13.70
2018-09-24T07:09:59.310Z,13.70
2018-09-24T07:12:32.923Z,13.70
2018-09-24T07:15:07.531Z,13.70
2018-09-24T07:17:41.278Z,13.80
2018-09-24T07:20:15.050Z,13.70
2018-09-24T07:22:48.842Z,13.60
2018-09-24T07:25:22.792Z,13.60
2018-09-24T07:27:56.748Z,13.60
2018-09-24T07:30:30.566Z,13.80
2018-09-24T07:33:04.604Z,13.70
2018-09-24T07:35:38.523Z,13.80
2018-09-24T07:38:12.306Z,14.00
2018-09-24T07:40:46.056Z,13.90
2018-09-24T07:43:19.737Z,13.80
2018-09-24T07:45:53.512Z,14.10
2018-09-24T07:48:27.486Z,14.20
2018-09-24T07:51:01.313Z,14.40
2018-09-24T07:53:35.162Z,14.40
2018-09-24T07:56:16.027Z,14.20
2018-09-24T07:58:49.822Z,14.30
2018-09-24T08:01:23.540Z,14.20
2018-09-24T08:03:57.403Z,14.20
2018-09-24T08:06:31.091Z,14.20
2018-09-24T08:09:04.763Z,14.10
2018-09-24T08:11:38.499Z,14.10
2018-09-24T08:14:12.310Z,14.20
2018-09-24T08:16:45.983Z,14.00
2018-09-24T08:19:19.551Z,14.10
2018-09-24T08:21:53.466Z,14.20
2018-09-24T08:24:27.244Z,14.20
2018-09-24T08:27:01.103Z,14.00
2018-09-24T08:29:34.868Z,13.80
2018-09-24T08:32:08.603Z,13.90
2018-09-24T08:34:42.558Z,14.30
2018-09-24T08:37:16.487Z,14.00
2018-09-24T08:39:50.228Z,14.10
2018-09-24T08:42:23.897Z,14.20
2018-09-24T08:44:57.610Z,14.40
2018-09-24T08:47:31.327Z,14.50
2018-09-24T08:50:04.977Z,14.30
2018-09-24T08:52:38.692Z,14.10
2018-09-24T08:55:12.665Z,14.10
2018-09-24T08:57:46.343Z,14.20
2018-09-24T09:00:20.018Z,14.20
2018-09-24T09:02:53.747Z,14.40
2018-09-24T09:05:27.367Z,14.60
2018-09-24T09:08:01.239Z,14.70
2018-09-24T09:10:35.080Z,15.00
2018-09-24T09:13:08.946Z,15.00
2018-09-24T09:15:42.754Z,15.00
2018-09-24T09:18:16.521Z,14.80
2018-09-24T09:20:50.142Z,14.30
2018-09-24T09:23:23.831Z,14.30
2018-09-24T09:25:57.694Z,14.10
2018-09-24T09:28:31.460Z,13.80
2018-09-24T09:31:05.202Z,13.80
2018-09-24T09:33:38.871Z,13.60
2018-09-24T09:36:12.714Z,13.70
2018-09-24T09:38:46.329Z,13.60
2018-09-24T09:41:20.075Z,13.50
2018-09-24T09:43:53.790Z,13.70
2018-09-24T09:57:59.390Z,14.00
2018-09-24T10:00:33.306Z,14.20
2018-09-24T10:03:07.178Z,14.30
2018-09-24T10:05:40.939Z,14.30
2018-09-24T10:08:14.730Z,14.60
2018-09-24T10:10:48.374Z,14.70
2018-09-24T10:13:22.257Z,14.70
2018-09-24T10:15:55.979Z,14.50
2018-09-24T10:18:29.827Z,14.50
2018-09-24T10:21:03.698Z,14.50
2018-09-24T10:23:37.559Z,14.50
2018-09-24T10:26:11.395Z,14.50
2018-09-24T10:28:45.295Z,14.50
2018-09-24T10:31:19.098Z,14.40
2018-09-24T10:33:52.823Z,14.70
2018-09-24T10:36:26.684Z,14.70
2018-09-24T10:39:00.547Z,14.70
2018-09-24T10:41:34.423Z,14.50
2018-09-24T10:44:08.208Z,14.50
2018-09-24T10:46:41.828Z,14.50
2018-09-24T10:49:15.786Z,14.60
2018-09-24T10:51:49.478Z,14.80
2018-09-24T10:54:23.246Z,15.00
2018-09-24T10:56:57.094Z,15.20
2018-09-24T10:59:31.021Z,15.50
2018-09-24T11:02:04.898Z,15.40
2018-09-24T11:04:38.812Z,15.30
2018-09-24T11:07:12.570Z,14.90
2018-09-24T11:09:46.426Z,14.50
2018-09-24T11:12:20.237Z,14.30
2018-09-24T11:14:54.074Z,14.50
2018-09-24T11:17:27.853Z,14.50
2018-09-24T11:20:01.465Z,14.50
2018-09-24T11:22:35.354Z,14.70
2018-09-24T11:25:09.214Z,15.00
2018-09-24T11:27:43.040Z,14.80
2018-09-24T11:30:16.778Z,14.50
2018-09-24T11:32:50.680Z,14.50
2018-09-24T11:35:24.568Z,14.60
2018-09-24T11:37:58.452Z,14.60
2018-09-24T11:40:32.334Z,14.60
2018-09-24T11:43:06.066Z,14.60
2018-09-24T11:45:39.752Z,14.70
2018-09-24T11:48:13.516Z,14.70
2018-09-24T11:50:47.281Z,14.70
2018-09-24T11:53:21.075Z,14.70
2018-09-24T11:55:54.938Z,14.80
2018-09-24T11:58:28.803Z,14.80
2018-09-24T12:01:02.676Z,14.50
2018-09-24T12:03:36.565Z,14.50
2018-09-24T12:06:10.225Z,14.70
2018-09-24T12:08:43.999Z,14.60
2018-09-24T12:11:17.847Z,14.10
2018-09-24T12:13:51.678Z,13.80
2018-09-24T12:16:25.423Z,13.80
2018-09-24T12:18:59.166Z,13.80
2018-09-24T12:21:32.883Z,13.70
2018-09-24T12:24:06.653Z,13.80
2018-09-24T12:26:40.239Z,14.20
2018-09-24T12:29:13.951Z,14.50
2018-09-24T12:31:47.843Z,15.10
2018-09-24T12:34:21.582Z,15.00
2018-09-24T12:36:55.374Z,14.80
2018-09-24T12:39:29.092Z,14.50
2018-09-24T12:42:02.993Z,14.50
2018-09-24T12:44:36.723Z,14.50
2018-09-24T12:47:10.591Z,14.40
2018-09-24T12:49:44.511Z,13.90
2018-09-24T12:52:18.326Z,14.20
2018-09-24T12:54:52.262Z,14.20
2018-09-24T12:57:25.931Z,14.40
2018-09-24T12:59:59.674Z,14.20
2018-09-24T13:17:01.166Z,15.10
2018-09-24T13:19:35.031Z,15.30
2018-09-24T13:22:08.947Z,15.50
2018-09-24T13:24:42.739Z,15.20
2018-09-24T13:27:16.483Z,14.80
2018-09-24T13:29:50.319Z,14.90
2018-09-24T13:32:24.116Z,14.70
2018-09-24T13:34:58.031Z,15.00
2018-09-24T13:37:31.871Z,15.00
2018-09-24T13:40:05.740Z,15.10
2018-09-24T13:42:39.704Z,14.90
2018-09-24T13:45:14.632Z,14.90
2018-09-24T13:47:48.462Z,14.90
2018-09-24T13:50:22.144Z,14.60
2018-09-24T13:52:56.019Z,13.80
2018-09-24T13:55:29.834Z,13.90
2018-09-24T13:58:03.576Z,13.90
2018-09-24T14:00:37.374Z,14.10
2018-09-24T14:03:11.214Z,14.10
2018-09-24T14:05:45.166Z,13.70
2018-09-24T14:08:19.067Z,13.50
2018-09-24T14:10:52.939Z,13.20
2018-09-24T14:13:26.648Z,13.10
2018-09-24T14:16:00.445Z,13.10
2018-09-24T14:18:34.339Z,13.20
2018-09-24T14:21:08.123Z,13.30
2018-09-24T14:23:41.810Z,13.50
2018-09-24T14:26:15.582Z,13.50
2018-09-24T14:28:49.371Z,13.30
2018-09-24T14:31:23.145Z,13.30
2018-09-24T14:33:56.942Z,13.20
2018-09-24T14:36:30.723Z,13.20
2018-09-24T14:39:04.542Z,13.30
2018-09-24T14:41:38.354Z,13.30
2018-09-24T14:44:12.371Z,13.40
2018-09-24T14:46:46.234Z,13.40
2018-09-24T14:49:19.830Z,13.50
2018-09-24T14:51:53.666Z,13.40
2018-09-24T14:54:27.358Z,13.30
2018-09-24T14:57:01.363Z,13.20
2018-09-24T14:59:35.197Z,13.10
2018-09-24T15:02:08.999Z,13.10
2018-09-24T15:04:42.761Z,13.10
2018-09-24T15:07:17.308Z,13.30
2018-09-24T15:09:51.162Z,13.40
2018-09-24T15:12:24.951Z,13.50
2018-09-24T15:14:58.691Z,13.50
2018-09-24T15:17:32.308Z,13.30
2018-09-24T15:20:05.943Z,13.20
2018-09-24T15:22:39.694Z,13.10
2018-09-24T15:25:13.602Z,13.10
2018-09-24T15:27:47.459Z,13.10
2018-09-24T15:30:21.175Z,12.90
2018-09-24T15:32:54.938Z,13.00
2018-09-24T15:35:28.630Z,12.90
2018-09-24T15:38:02.371Z,12.90
2018-09-24T15:40:36.178Z,12.90
2018-09-24T15:43:10.171Z,12.80
2018-09-24T15:45:44.117Z,12.70
2018-09-24T15:48:17.897Z,12.80
2018-09-24T15:50:51.780Z,12.70
2018-09-24T15:53:25.714Z,12.70
2018-09-24T15:55:59.603Z,12.60
2018-09-24T15:58:33.564Z,12.50
2018-09-24T16:01:07.340Z,12.40
2018-09-24T16:03:41.296Z,12.40
2018-09-24T16:06:15.291Z,12.30
2018-09-24T16:08:49.187Z,12.30
2018-09-24T16:11:23.039Z,12.20
2018-09-24T16:13:57.006Z,12.10
2018-09-24T16:16:30.794Z,12.10
2018-09-24T16:19:04.604Z,12.10
2018-09-24T16:21:38.391Z,12.10
2018-09-24T16:24:12.210Z,12.10
2018-09-24T16:26:46.128Z,12.00
2018-09-24T16:29:19.940Z,12.00
2018-09-24T16:31:53.699Z,11.90
2018-09-24T16:34:27.570Z,11.80
2018-09-24T16:37:01.283Z,11.70
2018-09-24T16:39:35.128Z,11.50
2018-09-24T16:42:09.071Z,11.30
2018-09-24T16:44:42.950Z,11.20
2018-09-24T16:47:16.853Z,11.10
2018-09-24T16:49:50.625Z,11.00
2018-09-24T16:52:24.486Z,10.80
2018-09-24T16:54:58.206Z,10.80
2018-09-24T16:57:31.970Z,10.70
2018-09-24T17:00:06.634Z,10.60
2018-09-24T17:02:40.379Z,10.60
2018-09-24T17:05:14.690Z,10.60
2018-09-24T17:07:48.302Z,10.60
2018-09-24T17:10:22.230Z,10.50
2018-09-24T17:12:56.163Z,10.50
2018-09-24T17:15:30.069Z,10.30
2018-09-24T17:18:03.806Z,10.20
2018-09-24T17:20:37.615Z,10.00
2018-09-24T17:23:11.500Z,9.90
2018-09-24T17:25:45.190Z,9.80
2018-09-24T17:28:18.806Z,9.80
2018-09-24T17:30:52.507Z,9.70
2018-09-24T17:33:26.245Z,9.60
2018-09-24T17:36:00.083Z,9.50
2018-09-24T17:38:33.899Z,9.50
2018-09-24T17:41:07.643Z,9.50
2018-09-24T17:43:41.439Z,9.50
2018-09-24T17:46:15.234Z,9.40
2018-09-24T17:48:49.140Z,9.40
2018-09-24T17:51:23.042Z,9.40
2018-09-24T17:53:56.722Z,9.40
2018-09-24T17:56:30.580Z,9.40
2018-09-24T17:59:04.458Z,9.30
2018-09-24T18:01:38.245Z,9.20
2018-09-24T18:04:11.935Z,9.20
2018-09-24T18:06:45.654Z,9.20
2018-09-24T18:09:19.494Z,9.20
2018-09-24T18:11:53.302Z,9.20
2018-09-24T18:14:27.200Z,9.10
2018-09-24T18:17:00.964Z,9.10
2018-09-24T18:19:34.778Z,9.00
2018-09-24T18:22:08.552Z,9.10
2018-09-24T18:24:42.355Z,9.00
2018-09-24T18:27:16.241Z,9.00
2018-09-24T18:29:49.974Z,8.80
2018-09-24T18:32:23.709Z,8.80
2018-09-24T18:34:57.501Z,8.70
2018-09-24T18:37:31.372Z,8.70
2018-09-24T18:40:05.207Z,8.70
2018-09-24T18:42:38.778Z,8.80
2018-09-24T18:45:12.994Z,8.80
2018-09-24T18:47:46.734Z,8.80
2018-09-24T18:50:20.471Z,8.80
2018-09-24T18:52:54.294Z,8.70
2018-09-24T18:55:28.011Z,8.70
2018-09-24T18:58:01.718Z,8.70
2018-09-24T19:00:35.391Z,8.80
2018-09-24T19:03:09.230Z,8.80
2018-09-24T19:05:42.989Z,8.80
2018-09-24T19:08:16.691Z,8.70
2018-09-24T19:10:50.629Z,8.70
2018-09-24T19:13:24.475Z,8.70
2018-09-24T19:15:58.210Z,8.50
2018-09-24T19:18:32.075Z,8.50
2018-09-24T19:21:05.940Z,8.50
2018-09-24T19:23:39.634Z,8.60
2018-09-24T19:26:13.893Z,8.60
2018-09-24T19:28:47.774Z,8.60
2018-09-24T19:31:21.644Z,8.60
2018-09-24T19:33:55.526Z,8.70
2018-09-24T19:36:29.388Z,8.70
2018-09-24T19:39:03.207Z,8.60
2018-09-24T19:41:37.047Z,8.60
2018-09-24T19:44:10.936Z,8.50
2018-09-24T19:46:44.814Z,8.40
2018-09-24T19:49:18.646Z,8.40
2018-09-24T19:51:52.559Z,8.40
2018-09-24T19:54:26.278Z,8.40
2018-09-24T19:56:59.966Z,8.30
2018-09-24T19:59:33.858Z,8.30
2018-09-24T20:02:07.652Z,8.20
2018-09-24T20:04:41.290Z,8.20
2018-09-24T20:07:15.195Z,8.10
2018-09-24T20:09:48.979Z,8.00
2018-09-24T20:12:22.650Z,8.10
2018-09-24T20:14:56.434Z,8.00
2018-09-24T20:17:30.171Z,8.00
2018-09-24T20:20:03.766Z,8.10
2018-09-24T20:22:37.631Z,8.20
2018-09-24T20:25:11.422Z,8.20
2018-09-24T20:27:45.186Z,8.20
2018-09-24T20:30:19.079Z,8.30
2018-09-24T20:32:52.774Z,8.30
2018-09-24T20:35:26.538Z,8.40
2018-09-24T20:38:07.250Z,8.30
2018-09-24T20:40:40.993Z,8.30
2018-09-24T20:43:14.730Z,8.30
2018-09-24T20:45:48.574Z,8.20
2018-09-24T20:48:22.314Z,8.20
2018-09-24T20:50:55.984Z,8.20
2018-09-24T20:53:29.698Z,8.20
2018-09-24T20:56:03.639Z,8.20
2018-09-24T20:58:37.407Z,8.20
2018-09-24T21:01:11.632Z,8.10
2018-09-24T21:03:45.434Z,8.00
2018-09-24T21:06:19.334Z,8.00
2018-09-24T21:08:53.044Z,8.10
2018-09-24T21:11:26.906Z,8.20
2018-09-24T21:14:00.527Z,8.30
2018-09-24T21:16:34.239Z,8.30
2018-09-24T21:19:08.030Z,8.30
2018-09-24T21:21:41.834Z,8.30
2018-09-24T21:24:15.567Z,8.20
2018-09-24T21:26:49.354Z,8.10
2018-09-24T21:29:23.127Z,8.10
2018-09-24T21:31:56.843Z,8.00
2018-09-24T21:34:30.774Z,8.00
2018-09-24T21:37:04.495Z,8.00
2018-09-24T21:39:38.307Z,7.90
2018-09-24T21:42:12.030Z,7.90
2018-09-24T21:44:45.873Z,7.80
2018-09-24T21:47:19.710Z,7.80
2018-09-24T21:49:53.575Z,7.90
2018-09-24T21:52:27.544Z,7.90
2018-09-24T21:55:01.287Z,7.90
2018-09-24T21:57:34.974Z,8.00
2018-09-24T22:00:08.767Z,8.00
2018-09-24T22:02:42.506Z,8.10
2018-09-24T22:05:16.419Z,8.10
2018-09-24T22:07:50.195Z,8.10
2018-09-24T22:10:23.927Z,8.10
2018-09-24T22:12:57.674Z,8.10
2018-09-24T22:15:31.515Z,8.00
2018-09-24T22:18:05.408Z,8.00
2018-09-24T22:20:39.099Z,8.00
2018-09-24T22:23:12.882Z,8.00
2018-09-24T22:25:46.726Z,8.00
2018-09-24T22:28:20.462Z,8.00
2018-09-24T22:30:54.086Z,7.90
2018-09-24T22:33:27.853Z,7.90
2018-09-24T22:36:01.463Z,7.90
2018-09-24T22:38:35.186Z,7.90
2018-09-24T22:41:08.894Z,7.90
2018-09-24T22:43:42.691Z,7.90
2018-09-24T22:46:16.426Z,7.80
2018-09-24T22:48:50.246Z,7.80
2018-09-24T22:51:23.962Z,7.70
2018-09-24T22:53:57.852Z,7.60
2018-09-24T22:56:31.666Z,7.60
2018-09-24T22:59:05.282Z,7.60
2018-09-24T23:01:39.214Z,7.50
2018-09-24T23:04:12.992Z,7.60
2018-09-24T23:06:46.734Z,7.50
2018-09-24T23:09:20.426Z,7.40
2018-09-24T23:11:54.142Z,7.40
2018-09-24T23:14:27.906Z,7.40
2018-09-24T23:17:01.797Z,7.40
2018-09-24T23:19:35.614Z,7.20
2018-09-24T23:22:09.306Z,7.20
2018-09-24T23:24:43.148Z,7.00
2018-09-24T23:27:16.858Z,7.00
2018-09-24T23:29:50.598Z,7.00
2018-09-24T23:32:24.343Z,7.00
2018-09-24T23:34:58.191Z,7.00
2018-09-24T23:37:31.908Z,7.00
2018-09-24T23:40:05.614Z,7.00
2018-09-24T23:42:39.438Z,6.90
2018-09-24T23:45:13.363Z,6.80
2018-09-24T23:47:47.214Z,6.80
2018-09-24T23:50:20.811Z,6.80
2018-09-24T23:52:54.749Z,6.80
2018-09-24T23:55:28.539Z,6.90
2018-09-24T23:58:02.226Z,6.90
